Terminal Aerodrome Forecast
Issued by NWS Cleveland, OH

Home | Current Version | Previous Version | Graphics & Text | Print | Product List | Glossary On
Versions: 1 2 3 4 5 6 7 8 9 10 11 12 13 14 15 16 17 18 19 20 21 22 23 24 25 26 27 28 29 30
000
FTUS41 KCLE 271500 AAA
TAFCLE
TAF AMD
KCLE 271514Z 2715/2818 19012KT P6SM VCSH BKN040 OVC060
      TEMPO 2715/2718 6SM -SHRA BR BKN030
     FM271800 19012KT P6SM SCT035 BKN060
     FM280000 22012KT 4SM -RA BR SCT015 OVC030
      TEMPO 2802/2804 OVC015
     FM280400 24010KT 4SM -RA BKN009 OVC015
     FM280800 31010KT P6SM SCT007 OVC012
     FM281400 33010KT P6SM SCT012 OVC200=

USA.gov is the U.S. government's official web portal to all federal, state and local government web resources and services.